createdAt,value
2022-11-05T00:02:43.693Z,84.40
2022-11-05T00:05:30.545Z,83.61
2022-11-05T00:08:18.631Z,84.55
2022-11-05T00:10:46.739Z,84.17
2022-11-05T00:13:32.658Z,84.89
2022-11-05T00:16:19.215Z,84.76
2022-11-05T00:19:06.242Z,85.24
2022-11-05T00:21:51.323Z,85.82
2022-11-05T00:24:36.972Z,85.87
2022-11-05T00:27:05.303Z,85.27
2022-11-05T00:29:33.190Z,85.89
2022-11-05T00:32:02.800Z,85.72
2022-11-05T00:34:30.657Z,84.91
2022-11-05T00:36:58.485Z,84.68
2022-11-05T00:39:26.346Z,85.28
2022-11-05T00:42:08.260Z,84.75
2022-11-05T00:44:52.571Z,85.54
2022-11-05T00:47:39.385Z,85.04
2022-11-05T00:50:07.734Z,85.81
2022-11-05T00:52:53.065Z,85.74
2022-11-05T00:55:21.049Z,85.78
2022-11-05T00:57:48.885Z,85.69
2022-11-05T01:00:17.235Z,86.16
2022-11-05T01:02:46.856Z,85.42
2022-11-05T01:05:15.188Z,86.72
2022-11-05T01:07:43.128Z,86.14
2022-11-05T01:10:11.144Z,85.31
2022-11-05T01:12:39.011Z,85.18
2022-11-05T01:15:08.074Z,85.16
2022-11-05T01:17:35.948Z,85.08
2022-11-05T01:20:06.015Z,85.48
2022-11-05T01:22:33.857Z,84.97
2022-11-05T01:25:01.713Z,84.72
2022-11-05T01:27:29.550Z,84.48
2022-11-05T01:29:57.596Z,85.14
2022-11-05T01:32:25.387Z,84.25
2022-11-05T01:34:53.302Z,83.97
2022-11-05T01:37:22.642Z,83.69
2022-11-05T01:39:50.566Z,85.79
2022-11-05T01:42:22.825Z,85.21
2022-11-05T01:44:58.802Z,85.37
2022-11-05T01:47:32.449Z,84.98
2022-11-05T01:50:03.673Z,85.18
2022-11-05T01:52:36.148Z,84.70
2022-11-05T01:55:05.816Z,84.00
2022-11-05T01:57:34.185Z,84.65
2022-11-05T02:00:02.844Z,84.44
2022-11-05T02:02:41.066Z,85.29
2022-11-05T02:05:12.588Z,84.35
2022-11-05T02:07:43.589Z,84.98
2022-11-05T02:10:14.963Z,84.98
2022-11-05T02:12:46.726Z,84.92
2022-11-05T02:15:17.442Z,84.23
2022-11-05T02:17:53.893Z,84.03
2022-11-05T02:20:32.750Z,84.71
2022-11-05T02:23:45.931Z,84.40
2022-11-05T02:27:10.544Z,85.32
2022-11-05T02:30:08.320Z,83.79
2022-11-05T02:32:59.534Z,84.87
2022-11-05T02:35:38.767Z,84.24
2022-11-05T02:38:10.247Z,84.95
2022-11-05T02:40:51.028Z,84.31
2022-11-05T02:43:29.756Z,84.34
2022-11-05T02:46:03.247Z,85.19
2022-11-05T02:48:41.806Z,85.20
2022-11-05T02:51:17.372Z,85.23
2022-11-05T02:53:50.928Z,85.31
2022-11-05T02:56:23.479Z,84.43
2022-11-05T02:58:51.418Z,84.29
2022-11-05T03:01:19.499Z,85.55
2022-11-05T03:03:52.605Z,84.59
2022-11-05T03:06:43.128Z,84.97
2022-11-05T03:09:28.969Z,84.14
2022-11-05T03:12:07.520Z,84.62
2022-11-05T03:14:42.997Z,83.95
2022-11-05T03:17:19.219Z,84.29
2022-11-05T03:19:51.008Z,84.82
2022-11-05T03:22:25.416Z,84.52
2022-11-05T03:24:59.162Z,85.35
2022-11-05T03:27:31.192Z,84.93
2022-11-05T03:30:03.261Z,84.48
2022-11-05T03:32:34.959Z,83.45
2022-11-05T03:35:09.136Z,85.29
2022-11-05T03:37:41.604Z,84.60
2022-11-05T03:40:12.978Z,84.62
2022-11-05T03:42:47.358Z,84.28
2022-11-05T03:45:20.718Z,83.70
2022-11-05T03:47:50.420Z,84.17
2022-11-05T03:50:24.943Z,82.61
2022-11-05T03:52:54.957Z,82.65
2022-11-05T03:55:33.576Z,83.17
2022-11-05T03:58:04.013Z,84.59
2022-11-05T04:00:32.175Z,83.47
2022-11-05T04:03:00.033Z,84.33
2022-11-05T04:05:29.494Z,84.04
2022-11-05T04:08:14.774Z,83.56
2022-11-05T04:11:00.015Z,83.52
2022-11-05T04:13:28.227Z,82.98
2022-11-05T04:16:14.542Z,84.22
2022-11-05T04:18:43.256Z,83.79
2022-11-05T04:21:30.108Z,82.82
2022-11-05T04:24:10.018Z,83.54
2022-11-05T04:26:39.065Z,83.95
2022-11-05T04:29:24.879Z,83.62
2022-11-05T04:31:53.100Z,83.70
2022-11-05T04:34:22.067Z,83.91
2022-11-05T04:36:52.315Z,83.74
2022-11-05T04:39:21.350Z,84.50
2022-11-05T04:41:49.571Z,83.71
2022-11-05T04:44:17.743Z,82.84
2022-11-05T04:46:45.633Z,83.33
2022-11-05T04:49:13.477Z,83.98
2022-11-05T04:51:41.349Z,83.51
2022-11-05T04:54:10.594Z,83.38
2022-11-05T04:56:38.427Z,83.16
2022-11-05T04:59:06.279Z,83.85
2022-11-05T05:01:34.151Z,83.34
2022-11-05T05:04:02.038Z,83.29
2022-11-05T05:06:29.849Z,84.40
2022-11-05T05:08:57.771Z,83.75
2022-11-05T05:11:27.162Z,83.03
2022-11-05T05:13:54.979Z,83.69
2022-11-05T05:16:25.594Z,82.97
2022-11-05T05:18:54.239Z,83.34
2022-11-05T05:21:41.108Z,81.79
2022-11-05T05:24:10.540Z,81.16
2022-11-05T05:26:42.015Z,82.56
2022-11-05T05:29:10.834Z,82.90
2022-11-05T05:31:39.067Z,82.78
2022-11-05T05:34:08.712Z,83.19
2022-11-05T05:36:36.511Z,82.29
2022-11-05T05:39:06.698Z,82.77
2022-11-05T05:41:34.878Z,81.65
2022-11-05T05:44:06.003Z,83.13
2022-11-05T05:46:33.858Z,83.61
2022-11-05T05:49:01.779Z,83.63
2022-11-05T05:51:29.639Z,83.49
2022-11-05T05:53:58.514Z,83.70
2022-11-05T05:56:26.571Z,83.82
2022-11-05T05:58:54.772Z,82.53
2022-11-05T06:01:24.274Z,83.32
2022-11-05T06:03:52.391Z,83.64
2022-11-05T06:06:21.157Z,83.15
2022-11-05T06:08:49.987Z,83.91
2022-11-05T06:11:17.947Z,82.76
2022-11-05T06:13:45.795Z,82.39
2022-11-05T06:16:13.689Z,82.01
2022-11-05T06:18:43.301Z,82.29
2022-11-05T06:21:13.135Z,82.61
2022-11-05T06:23:42.749Z,81.86
2022-11-05T06:26:12.719Z,82.08
2022-11-05T06:28:42.088Z,82.34
2022-11-05T06:31:10.246Z,82.18
2022-11-05T06:33:38.399Z,81.19
2022-11-05T06:36:09.861Z,81.39
2022-11-05T06:38:38.148Z,80.58
2022-11-05T06:41:10.283Z,80.44
2022-11-05T06:43:38.936Z,81.12
2022-11-05T06:46:07.482Z,80.63
2022-11-05T06:48:35.609Z,80.99
2022-11-05T06:51:03.682Z,80.16
2022-11-05T06:53:33.377Z,80.56
2022-11-05T06:56:03.429Z,81.42
2022-11-05T06:58:32.084Z,81.51
2022-11-05T07:01:03.606Z,80.85
2022-11-05T07:03:31.886Z,79.39
2022-11-05T07:06:01.385Z,80.62
2022-11-05T07:08:33.461Z,80.41
2022-11-05T07:11:01.364Z,80.21
2022-11-05T07:13:29.245Z,80.62
2022-11-05T07:15:57.230Z,80.49
2022-11-05T07:18:25.211Z,79.21
2022-11-05T07:20:53.104Z,80.33
2022-11-05T07:23:20.991Z,79.97
2022-11-05T07:25:50.670Z,80.25
2022-11-05T07:28:18.997Z,80.33
2022-11-05T07:30:48.184Z,80.37
2022-11-05T07:33:16.045Z,80.81
2022-11-05T07:35:44.012Z,80.68
2022-11-05T07:38:12.066Z,81.41
2022-11-05T07:40:39.925Z,80.04
2022-11-05T07:43:09.492Z,80.92
2022-11-05T07:45:37.532Z,80.25
2022-11-05T07:48:06.100Z,80.44
2022-11-05T07:50:35.799Z,80.24
2022-11-05T07:53:05.617Z,81.14
2022-11-05T07:55:34.221Z,80.71
2022-11-05T07:58:02.041Z,80.51
2022-11-05T08:00:32.044Z,80.83
2022-11-05T08:03:08.223Z,80.09
2022-11-05T08:05:38.089Z,80.56
2022-11-05T08:08:07.274Z,80.61
2022-11-05T08:10:35.928Z,81.15
2022-11-05T08:13:04.465Z,80.93
2022-11-05T08:15:34.143Z,80.63
2022-11-05T08:18:03.287Z,80.51
2022-11-05T08:20:32.103Z,80.55
2022-11-05T08:23:00.152Z,80.38
2022-11-05T08:25:28.133Z,80.17
2022-11-05T08:27:57.590Z,80.45
2022-11-05T08:30:26.139Z,80.86
2022-11-05T08:33:02.469Z,80.60
2022-11-05T08:35:30.836Z,79.28
2022-11-05T08:37:59.251Z,79.21
2022-11-05T08:40:27.833Z,79.86
2022-11-05T08:42:58.083Z,78.46
2022-11-05T08:45:26.070Z,80.28
2022-11-05T08:48:01.334Z,80.29
2022-11-05T08:50:29.667Z,80.09
2022-11-05T08:52:57.644Z,78.98
2022-11-05T08:55:28.356Z,79.27
2022-11-05T08:57:57.332Z,79.40
2022-11-05T09:00:25.409Z,78.05
2022-11-05T09:02:53.348Z,76.96
2022-11-05T09:05:22.785Z,77.76
2022-11-05T09:07:51.623Z,77.02
2022-11-05T09:10:24.810Z,77.49
2022-11-05T09:12:52.657Z,76.83
2022-11-05T09:15:20.503Z,76.22
2022-11-05T09:17:48.348Z,75.24
2022-11-05T09:20:16.183Z,75.35
2022-11-05T09:22:46.252Z,74.11
2022-11-05T09:25:15.248Z,72.31
2022-11-05T09:27:43.199Z,70.79
2022-11-05T09:30:12.589Z,71.77
2022-11-05T09:32:40.632Z,71.04
2022-11-05T09:35:09.525Z,71.28
2022-11-05T09:37:38.384Z,70.92
2022-11-05T09:40:09.007Z,69.53
2022-11-05T09:42:41.849Z,70.08
2022-11-05T09:45:14.628Z,68.19
2022-11-05T09:47:48.216Z,67.80
2022-11-05T09:50:19.861Z,67.97
2022-11-05T09:52:47.845Z,68.22
2022-11-05T09:55:22.194Z,66.74
2022-11-05T09:57:53.775Z,66.84
2022-11-05T10:00:21.810Z,65.52
2022-11-05T10:02:53.168Z,65.57
2022-11-05T10:05:23.353Z,64.40
2022-11-05T10:07:54.641Z,64.46
2022-11-05T10:10:36.438Z,63.56
2022-11-05T10:13:14.678Z,62.68
2022-11-05T10:15:52.030Z,62.71
2022-11-05T10:18:26.047Z,63.54
2022-11-05T10:20:53.876Z,62.59
2022-11-05T10:23:23.497Z,61.85
2022-11-05T10:25:57.096Z,61.75
2022-11-05T10:28:26.991Z,61.32
2022-11-05T10:30:59.447Z,62.33
2022-11-05T10:33:33.215Z,60.41
2022-11-05T10:36:05.419Z,60.23
2022-11-05T10:38:34.021Z,60.15
2022-11-05T10:41:15.128Z,58.83
2022-11-05T10:43:48.541Z,59.58
2022-11-05T10:46:25.928Z,60.72
2022-11-05T10:49:11.572Z,59.69
2022-11-05T10:51:40.162Z,58.24
2022-11-05T10:54:19.050Z,58.45
2022-11-05T10:56:48.578Z,59.32
2022-11-05T10:59:24.850Z,57.37
2022-11-05T11:02:02.144Z,57.85
2022-11-05T11:04:37.440Z,56.23
2022-11-05T11:07:06.496Z,56.78
2022-11-05T11:09:37.254Z,56.11
2022-11-05T11:12:14.287Z,54.87
2022-11-05T11:14:42.116Z,54.71
2022-11-05T11:17:27.843Z,53.33
2022-11-05T11:20:20.863Z,52.55
2022-11-05T11:23:11.630Z,53.66
2022-11-05T11:25:48.077Z,54.97
2022-11-05T11:28:22.912Z,53.89
2022-11-05T11:30:55.085Z,53.70
2022-11-05T11:33:28.215Z,54.75
2022-11-05T11:35:56.519Z,53.05
2022-11-05T11:38:26.266Z,53.46
2022-11-05T11:41:02.267Z,53.53
2022-11-05T11:43:37.078Z,51.94
2022-11-05T11:46:09.878Z,53.96
2022-11-05T11:48:41.821Z,53.02
2022-11-05T11:51:29.779Z,53.25
2022-11-05T11:53:58.774Z,51.21
2022-11-05T11:56:27.500Z,52.32
2022-11-05T11:58:58.361Z,50.95
2022-11-05T12:01:55.133Z,50.87
2022-11-05T12:04:38.490Z,50.48
2022-11-05T12:07:18.735Z,50.31
2022-11-05T12:10:04.284Z,50.50
2022-11-05T12:12:41.740Z,50.54
2022-11-05T12:15:28.718Z,51.19
2022-11-05T12:18:01.549Z,53.25
2022-11-05T12:20:58.320Z,53.13
2022-11-05T12:23:58.518Z,53.65
2022-11-05T12:26:39.671Z,54.17
2022-11-05T12:29:34.555Z,54.86
2022-11-05T12:32:28.815Z,53.29
2022-11-05T12:35:05.681Z,55.04
2022-11-05T12:37:38.490Z,55.15
2022-11-05T12:40:21.781Z,53.87
2022-11-05T12:43:10.548Z,55.03
2022-11-05T12:45:46.788Z,55.87
2022-11-05T12:48:35.803Z,54.60
2022-11-05T12:51:17.412Z,55.35
2022-11-05T12:53:58.707Z,54.96
2022-11-05T12:56:33.183Z,54.30
2022-11-05T12:59:07.322Z,54.65
2022-11-05T13:01:37.966Z,55.79
2022-11-05T13:04:16.128Z,53.80
2022-11-05T13:06:49.534Z,54.11
2022-11-05T13:09:21.004Z,54.47
2022-11-05T13:11:53.733Z,55.11
2022-11-05T13:14:26.642Z,54.78
2022-11-05T13:16:59.872Z,55.02
2022-11-05T13:19:34.450Z,54.59
2022-11-05T13:22:09.748Z,52.99
2022-11-05T13:24:43.335Z,55.22
2022-11-05T13:27:30.197Z,54.93
2022-11-05T13:30:04.044Z,54.54
2022-11-05T13:32:36.383Z,54.01
2022-11-05T13:35:08.765Z,54.53
2022-11-05T13:37:58.559Z,54.20
2022-11-05T13:40:39.055Z,55.48
2022-11-05T13:43:22.879Z,54.74
2022-11-05T13:46:06.230Z,54.72
2022-11-05T13:48:48.958Z,55.26
2022-11-05T13:51:47.403Z,54.43
2022-11-05T13:54:51.195Z,54.78
2022-11-05T13:57:34.645Z,53.72
2022-11-05T14:00:12.504Z,56.07
2022-11-05T14:02:45.246Z,54.67
2022-11-05T14:05:24.948Z,55.23
2022-11-05T14:07:55.615Z,56.24
2022-11-05T14:10:32.464Z,55.56
2022-11-05T14:13:06.391Z,55.17
2022-11-05T14:15:34.442Z,54.27
2022-11-05T14:18:04.110Z,54.60
2022-11-05T14:20:47.838Z,55.62
2022-11-05T14:23:39.403Z,55.18
2022-11-05T14:26:19.471Z,54.96
2022-11-05T14:28:49.964Z,55.50
2022-11-05T14:34:55.451Z,56.38
2022-11-05T14:37:42.109Z,56.66
2022-11-05T14:40:36.249Z,55.92
2022-11-05T14:43:05.159Z,57.10
2022-11-05T14:45:36.203Z,56.57
2022-11-05T14:48:06.675Z,56.98
2022-11-05T14:50:40.212Z,57.32
2022-11-05T14:53:13.497Z,56.72
2022-11-05T14:55:44.709Z,57.22
2022-11-05T14:58:33.741Z,57.26
2022-11-05T15:01:04.113Z,57.46
2022-11-05T15:04:00.794Z,57.78
2022-11-05T15:06:35.210Z,58.67
2022-11-05T15:09:18.326Z,58.05
2022-11-05T15:12:09.154Z,58.87
2022-11-05T15:14:43.364Z,58.72
2022-11-05T15:17:25.626Z,59.68
2022-11-05T15:19:54.285Z,59.61
2022-11-05T15:22:29.209Z,60.63
2022-11-05T15:24:57.494Z,59.03
2022-11-05T15:27:44.341Z,58.58
2022-11-05T15:30:16.606Z,59.76
2022-11-05T15:32:44.638Z,59.00
2022-11-05T15:35:21.242Z,59.75
2022-11-05T15:37:55.936Z,60.48
2022-11-05T15:40:29.437Z,59.50
2022-11-05T15:43:16.391Z,60.47
2022-11-05T15:45:44.452Z,60.38
2022-11-05T15:48:16.435Z,60.59
2022-11-05T15:50:44.408Z,61.19
2022-11-05T15:53:44.166Z,60.13
2022-11-05T15:56:15.538Z,60.40
2022-11-05T15:58:48.912Z,60.71
2022-11-05T16:01:21.225Z,61.25
2022-11-05T16:03:49.684Z,61.01
2022-11-05T16:06:17.814Z,62.28
2022-11-05T16:08:49.378Z,62.02
2022-11-05T16:11:25.472Z,61.19
2022-11-05T16:14:13.433Z,62.06
2022-11-05T16:16:41.559Z,64.46
2022-11-05T16:19:40.550Z,62.83
2022-11-05T16:22:09.150Z,63.80
2022-11-05T16:24:37.228Z,63.33
2022-11-05T16:27:06.226Z,63.52
2022-11-05T16:29:37.648Z,63.79
2022-11-05T16:32:07.507Z,64.15
2022-11-05T16:34:39.133Z,65.07
2022-11-05T16:37:09.144Z,65.88
2022-11-05T16:39:37.183Z,65.34
2022-11-05T16:42:38.108Z,64.35
2022-11-05T16:45:09.432Z,64.59
2022-11-05T16:47:37.568Z,64.32
2022-11-05T16:50:16.022Z,64.26
2022-11-05T16:52:45.862Z,65.65
2022-11-05T16:55:15.024Z,65.73
2022-11-05T16:57:44.338Z,64.78
2022-11-05T17:00:16.274Z,64.40
2022-11-05T17:02:45.223Z,64.16
2022-11-05T17:05:19.229Z,63.54
2022-11-05T17:07:47.383Z,64.82
2022-11-05T17:10:15.531Z,64.74
2022-11-05T17:12:43.849Z,63.82
2022-11-05T17:15:24.247Z,64.17
2022-11-05T17:17:56.226Z,65.68
2022-11-05T17:20:30.692Z,64.80
2022-11-05T17:23:02.350Z,64.43
2022-11-05T17:25:30.331Z,64.38
2022-11-05T17:27:59.048Z,65.14
2022-11-05T17:30:28.604Z,65.46
2022-11-05T17:32:56.719Z,64.26
2022-11-05T17:35:25.001Z,65.77
2022-11-05T17:37:52.929Z,64.69
2022-11-05T17:40:23.279Z,64.95
2022-11-05T17:42:52.637Z,64.90
2022-11-05T17:45:20.567Z,65.14
2022-11-05T17:47:49.917Z,66.18
2022-11-05T17:50:20.254Z,66.07
2022-11-05T17:52:48.380Z,65.15
2022-11-05T17:55:19.219Z,65.22
2022-11-05T17:57:49.265Z,65.84
2022-11-05T18:00:19.400Z,66.40
2022-11-05T18:02:49.801Z,65.59
2022-11-05T18:05:18.639Z,65.51
2022-11-05T18:07:47.538Z,65.44
2022-11-05T18:10:16.036Z,65.88
2022-11-05T18:12:44.778Z,65.29
2022-11-05T18:15:13.486Z,67.22
2022-11-05T18:17:41.656Z,66.80
2022-11-05T18:20:18.418Z,67.13
2022-11-05T18:22:48.999Z,67.04
2022-11-05T18:25:17.305Z,67.09
2022-11-05T18:27:45.394Z,66.66
2022-11-05T18:30:15.500Z,66.36
2022-11-05T18:32:44.022Z,66.68
2022-11-05T18:35:14.573Z,66.68
2022-11-05T18:37:42.758Z,67.44
2022-11-05T18:40:11.660Z,67.18
2022-11-05T18:42:39.851Z,67.51
2022-11-05T18:45:09.011Z,67.83
2022-11-05T18:47:36.946Z,68.04
2022-11-05T18:50:06.806Z,67.90
2022-11-05T18:52:36.074Z,67.65
2022-11-05T18:55:03.995Z,68.55
2022-11-05T18:57:34.181Z,67.72
2022-11-05T19:00:02.193Z,68.60
2022-11-05T19:02:30.272Z,68.13
2022-11-05T19:07:47.623Z,69.96
2022-11-05T19:10:15.645Z,69.69
2022-11-05T19:12:43.458Z,69.72
2022-11-05T19:15:11.802Z,69.44
2022-11-05T19:17:39.690Z,69.45
2022-11-05T19:20:09.543Z,68.57
2022-11-05T19:22:37.413Z,68.89
2022-11-05T19:25:07.929Z,68.20
2022-11-05T19:27:36.663Z,69.19
2022-11-05T19:30:05.298Z,68.51
2022-11-05T19:32:33.184Z,68.84
2022-11-05T19:35:01.010Z,68.41
2022-11-05T19:37:28.962Z,69.25
2022-11-05T19:39:56.873Z,68.95
2022-11-05T19:42:26.111Z,69.11
2022-11-05T19:44:53.958Z,69.63
2022-11-05T19:47:21.787Z,69.87
2022-11-05T19:49:49.729Z,69.07
2022-11-05T19:52:17.623Z,70.20
2022-11-05T19:54:46.007Z,70.39
2022-11-05T19:57:14.269Z,70.87
2022-11-05T19:59:43.694Z,69.88
2022-11-05T20:02:16.305Z,69.53
2022-11-05T20:04:44.676Z,70.17
2022-11-05T20:07:12.643Z,70.76
2022-11-05T20:09:40.559Z,70.26
2022-11-05T20:12:08.544Z,70.75
2022-11-05T20:14:36.602Z,70.26
2022-11-05T20:17:05.874Z,70.04
2022-11-05T20:19:35.098Z,70.89
2022-11-05T20:22:03.389Z,71.44
2022-11-05T20:24:31.396Z,71.03
2022-11-05T20:26:59.264Z,70.86
2022-11-05T20:29:33.923Z,70.81
2022-11-05T20:32:09.414Z,70.76
2022-11-05T20:34:37.302Z,70.48
2022-11-05T20:37:08.518Z,71.10
2022-11-05T20:39:36.462Z,71.14
2022-11-05T20:42:04.512Z,70.66
2022-11-05T20:44:32.367Z,70.48
2022-11-05T20:47:01.291Z,70.96
2022-11-05T20:49:30.589Z,71.34
2022-11-05T20:51:58.479Z,70.43
2022-11-05T20:54:26.363Z,70.33
2022-11-05T20:56:54.718Z,70.64
2022-11-05T20:59:22.824Z,70.94
2022-11-05T21:01:51.947Z,71.28
2022-11-05T21:04:20.126Z,72.01
2022-11-05T21:06:49.406Z,71.79
2022-11-05T21:09:17.237Z,71.32
2022-11-05T21:12:02.607Z,71.48
2022-11-05T21:14:30.449Z,71.04
2022-11-05T21:16:58.307Z,72.07
2022-11-05T21:19:26.178Z,71.56
2022-11-05T21:21:55.415Z,72.25
2022-11-05T21:24:23.238Z,71.64
2022-11-05T21:26:51.316Z,71.35
2022-11-05T21:29:22.041Z,71.24
2022-11-05T21:31:52.290Z,72.27
2022-11-05T21:34:20.952Z,72.11
2022-11-05T21:36:50.276Z,72.39
2022-11-05T21:39:19.530Z,72.67
2022-11-05T21:41:52.462Z,72.61
2022-11-05T21:44:20.404Z,72.68
2022-11-05T21:46:48.238Z,71.71
2022-11-05T21:49:16.078Z,71.39
2022-11-05T21:52:01.116Z,72.40
2022-11-05T21:54:47.982Z,72.12
2022-11-05T21:57:35.473Z,71.95
2022-11-05T22:00:05.817Z,71.61
2022-11-05T22:02:33.754Z,71.58
2022-11-05T22:05:02.627Z,72.40
2022-11-05T22:07:35.371Z,71.57
2022-11-05T22:10:15.649Z,71.45
2022-11-05T22:12:44.481Z,71.09
2022-11-05T22:15:12.894Z,71.76
2022-11-05T22:17:46.231Z,71.52
2022-11-05T22:20:15.271Z,71.26
2022-11-05T22:22:45.388Z,71.27
2022-11-05T22:25:15.699Z,70.43
2022-11-05T22:27:44.227Z,70.95
2022-11-05T22:30:13.679Z,70.90
2022-11-05T22:32:41.644Z,71.17
2022-11-05T22:35:10.380Z,71.54
2022-11-05T22:37:38.208Z,72.30
2022-11-05T22:40:07.082Z,72.39
2022-11-05T22:42:36.401Z,71.84
2022-11-05T22:45:04.715Z,72.56
2022-11-05T22:47:32.546Z,72.22
2022-11-05T22:50:00.439Z,71.98
2022-11-05T22:52:28.320Z,72.85
2022-11-05T22:54:56.150Z,72.34
2022-11-05T22:57:24.035Z,72.75
2022-11-05T22:59:53.270Z,72.88
2022-11-05T23:02:21.251Z,72.78
2022-11-05T23:04:49.881Z,72.13
2022-11-05T23:07:35.382Z,72.31
2022-11-05T23:10:19.953Z,72.02
2022-11-05T23:12:47.923Z,72.57
2022-11-05T23:15:31.045Z,71.42
2022-11-05T23:18:16.304Z,71.72
2022-11-05T23:21:01.318Z,72.26
2022-11-05T23:23:46.853Z,71.79
2022-11-05T23:26:32.189Z,71.92
2022-11-05T23:29:00.090Z,72.33
2022-11-05T23:31:58.384Z,72.58
2022-11-05T23:34:26.433Z,72.38
2022-11-05T23:37:11.855Z,72.27
2022-11-05T23:39:42.449Z,71.74
2022-11-05T23:42:29.073Z,71.78
2022-11-05T23:45:14.723Z,72.24
2022-11-05T23:48:02.209Z,71.73
2022-11-05T23:50:37.078Z,71.91
2022-11-05T23:53:07.605Z,71.50
2022-11-05T23:55:35.697Z,71.15
2022-11-05T23:58:03.565Z,71.96
